sensor_id;sensor_type;location;lat;lon;timestamp;P1;durP1;ratioP1;P2;durP2;ratioP2
13805;SDS011;6974;53.606;9.872;2022-09-01T00:01:03;1.90;;;1.60;;
13805;SDS011;6974;53.606;9.872;2022-09-01T00:03:30;1.50;;;1.40;;
13805;SDS011;6974;53.606;9.872;2022-09-01T00:05:59;2.50;;;1.60;;
13805;SDS011;6974;53.606;9.872;2022-09-01T00:08:28;1.83;;;1.40;;
13805;SDS011;6974;53.606;9.872;2022-09-01T00:10:55;1.90;;;1.60;;
13805;SDS011;6974;53.606;9.872;2022-09-01T00:13:23;1.63;;;1.50;;
13805;SDS011;6974;53.606;9.872;2022-09-01T00:15:50;1.63;;;1.53;;
13805;SDS011;6974;53.606;9.872;2022-09-01T00:18:18;1.80;;;1.50;;
13805;SDS011;6974;53.606;9.872;2022-09-01T00:20:46;1.67;;;1.57;;
13805;SDS011;6974;53.606;9.872;2022-09-01T00:23:15;1.50;;;1.40;;
13805;SDS011;6974;53.606;9.872;2022-09-01T00:25:42;1.73;;;1.60;;
13805;SDS011;6974;53.606;9.872;2022-09-01T00:28:09;2.33;;;1.40;;
13805;SDS011;6974;53.606;9.872;2022-09-01T00:30:36;1.70;;;1.50;;
13805;SDS011;6974;53.606;9.872;2022-09-01T00:33:03;1.30;;;1.20;;
13805;SDS011;6974;53.606;9.872;2022-09-01T00:35:30;1.70;;;1.50;;
13805;SDS011;6974;53.606;9.872;2022-09-01T00:37:57;2.27;;;1.40;;
13805;SDS011;6974;53.606;9.872;2022-09-01T00:40:26;1.60;;;1.50;;
13805;SDS011;6974;53.606;9.872;2022-09-01T00:42:53;1.50;;;1.40;;
13805;SDS011;6974;53.606;9.872;2022-09-01T00:45:20;1.67;;;1.50;;
13805;SDS011;6974;53.606;9.872;2022-09-01T00:47:47;2.83;;;1.60;;
13805;SDS011;6974;53.606;9.872;2022-09-01T00:50:16;1.70;;;1.60;;
13805;SDS011;6974;53.606;9.872;2022-09-01T00:52:44;1.67;;;1.50;;
13805;SDS011;6974;53.606;9.872;2022-09-01T00:55:15;2.70;;;1.40;;
13805;SDS011;6974;53.606;9.872;2022-09-01T00:57:48;2.17;;;1.37;;
13805;SDS011;6974;53.606;9.872;2022-09-01T01:00:16;1.30;;;1.20;;
13805;SDS011;6974;53.606;9.872;2022-09-01T01:02:45;1.50;;;1.40;;
13805;SDS011;6974;53.606;9.872;2022-09-01T01:05:14;3.93;;;1.50;;
13805;SDS011;6974;53.606;9.872;2022-09-01T01:07:41;1.80;;;1.30;;
13805;SDS011;6974;53.606;9.872;2022-09-01T01:10:11;2.03;;;1.50;;
13805;SDS011;6974;53.606;9.872;2022-09-01T01:12:40;3.53;;;1.50;;
13805;SDS011;6974;53.606;9.872;2022-09-01T01:15:10;2.47;;;1.50;;
13805;SDS011;6974;53.606;9.872;2022-09-01T01:17:39;2.03;;;1.60;;
13805;SDS011;6974;53.606;9.872;2022-09-01T01:20:07;1.50;;;1.40;;
13805;SDS011;6974;53.606;9.872;2022-09-01T01:22:56;2.30;;;1.50;;
13805;SDS011;6974;53.606;9.872;2022-09-01T01:25:29;1.60;;;1.50;;
13805;SDS011;6974;53.606;9.872;2022-09-01T01:28:08;1.53;;;1.43;;
13805;SDS011;6974;53.606;9.872;2022-09-01T01:30:37;2.23;;;1.70;;
13805;SDS011;6974;53.606;9.872;2022-09-01T01:33:15;2.13;;;1.50;;
13805;SDS011;6974;53.606;9.872;2022-09-01T01:35:42;1.60;;;1.50;;
13805;SDS011;6974;53.606;9.872;2022-09-01T01:38:11;1.63;;;1.50;;
13805;SDS011;6974;53.606;9.872;2022-09-01T01:40:41;1.70;;;1.57;;
13805;SDS011;6974;53.606;9.872;2022-09-01T01:43:08;1.70;;;1.60;;
13805;SDS011;6974;53.606;9.872;2022-09-01T01:45:44;1.90;;;1.50;;
13805;SDS011;6974;53.606;9.872;2022-09-01T01:48:13;1.70;;;1.60;;
13805;SDS011;6974;53.606;9.872;2022-09-01T01:50:48;1.40;;;1.30;;
13805;SDS011;6974;53.606;9.872;2022-09-01T01:53:17;2.07;;;1.77;;
13805;SDS011;6974;53.606;9.872;2022-09-01T01:55:45;2.67;;;1.50;;
13805;SDS011;6974;53.606;9.872;2022-09-01T01:58:13;2.20;;;1.70;;
13805;SDS011;6974;53.606;9.872;2022-09-01T02:00:41;3.10;;;1.70;;
13805;SDS011;6974;53.606;9.872;2022-09-01T02:03:09;2.00;;;1.80;;
13805;SDS011;6974;53.606;9.872;2022-09-01T02:05:43;2.17;;;1.67;;
13805;SDS011;6974;53.606;9.872;2022-09-01T02:08:11;1.60;;;1.50;;
13805;SDS011;6974;53.606;9.872;2022-09-01T02:10:41;2.00;;;1.70;;
13805;SDS011;6974;53.606;9.872;2022-09-01T02:13:12;2.67;;;1.60;;
13805;SDS011;6974;53.606;9.872;2022-09-01T02:15:43;1.90;;;1.70;;
13805;SDS011;6974;53.606;9.872;2022-09-01T02:18:13;3.30;;;1.50;;
13805;SDS011;6974;53.606;9.872;2022-09-01T02:20:42;2.10;;;1.60;;
13805;SDS011;6974;53.606;9.872;2022-09-01T02:23:09;2.30;;;1.70;;
13805;SDS011;6974;53.606;9.872;2022-09-01T02:25:40;1.70;;;1.60;;
13805;SDS011;6974;53.606;9.872;2022-09-01T02:28:11;1.97;;;1.60;;
13805;SDS011;6974;53.606;9.872;2022-09-01T02:30:41;1.90;;;1.70;;
13805;SDS011;6974;53.606;9.872;2022-09-01T02:33:08;2.70;;;1.80;;
13805;SDS011;6974;53.606;9.872;2022-09-01T02:35:38;2.27;;;1.80;;
13805;SDS011;6974;53.606;9.872;2022-09-01T02:38:05;3.13;;;1.83;;
13805;SDS011;6974;53.606;9.872;2022-09-01T02:40:32;2.10;;;1.90;;
13805;SDS011;6974;53.606;9.872;2022-09-01T02:42:59;2.03;;;1.87;;
13805;SDS011;6974;53.606;9.872;2022-09-01T02:45:28;2.37;;;2.10;;
13805;SDS011;6974;53.606;9.872;2022-09-01T02:47:56;2.10;;;1.80;;
13805;SDS011;6974;53.606;9.872;2022-09-01T02:50:23;3.37;;;1.90;;
13805;SDS011;6974;53.606;9.872;2022-09-01T02:52:51;1.67;;;1.57;;
13805;SDS011;6974;53.606;9.872;2022-09-01T02:55:19;2.90;;;1.83;;
13805;SDS011;6974;53.606;9.872;2022-09-01T02:57:48;1.97;;;1.87;;
13805;SDS011;6974;53.606;9.872;2022-09-01T03:00:17;2.27;;;1.80;;
13805;SDS011;6974;53.606;9.872;2022-09-01T03:02:55;3.93;;;2.00;;
13805;SDS011;6974;53.606;9.872;2022-09-01T03:05:24;1.90;;;1.63;;
13805;SDS011;6974;53.606;9.872;2022-09-01T03:07:54;2.40;;;2.20;;
13805;SDS011;6974;53.606;9.872;2022-09-01T03:10:23;3.67;;;1.80;;
13805;SDS011;6974;53.606;9.872;2022-09-01T03:12:57;2.63;;;1.80;;
13805;SDS011;6974;53.606;9.872;2022-09-01T03:15:25;1.97;;;1.87;;
13805;SDS011;6974;53.606;9.872;2022-09-01T03:17:55;1.77;;;1.67;;
13805;SDS011;6974;53.606;9.872;2022-09-01T03:20:23;3.83;;;2.00;;
13805;SDS011;6974;53.606;9.872;2022-09-01T03:22:50;2.33;;;2.10;;
13805;SDS011;6974;53.606;9.872;2022-09-01T03:25:17;2.70;;;1.80;;
13805;SDS011;6974;53.606;9.872;2022-09-01T03:27:45;3.17;;;2.07;;
13805;SDS011;6974;53.606;9.872;2022-09-01T03:30:13;2.10;;;1.90;;
13805;SDS011;6974;53.606;9.872;2022-09-01T03:32:40;2.10;;;1.90;;
13805;SDS011;6974;53.606;9.872;2022-09-01T03:35:09;1.90;;;1.80;;
13805;SDS011;6974;53.606;9.872;2022-09-01T03:37:37;1.70;;;1.60;;
13805;SDS011;6974;53.606;9.872;2022-09-01T03:40:09;2.90;;;1.70;;
13805;SDS011;6974;53.606;9.872;2022-09-01T03:42:37;1.93;;;1.83;;
13805;SDS011;6974;53.606;9.872;2022-09-01T03:45:05;2.40;;;2.10;;
13805;SDS011;6974;53.606;9.872;2022-09-01T03:47:36;2.73;;;2.37;;
13805;SDS011;6974;53.606;9.872;2022-09-01T03:50:05;3.40;;;2.47;;
13805;SDS011;6974;53.606;9.872;2022-09-01T03:52:37;3.10;;;2.77;;
13805;SDS011;6974;53.606;9.872;2022-09-01T03:55:05;2.60;;;2.40;;
13805;SDS011;6974;53.606;9.872;2022-09-01T03:57:34;2.37;;;1.90;;
13805;SDS011;6974;53.606;9.872;2022-09-01T04:00:06;2.47;;;2.20;;
13805;SDS011;6974;53.606;9.872;2022-09-01T04:02:44;3.30;;;2.27;;
13805;SDS011;6974;53.606;9.872;2022-09-01T04:05:13;2.53;;;2.20;;
13805;SDS011;6974;53.606;9.872;2022-09-01T04:07:41;2.60;;;2.20;;
13805;SDS011;6974;53.606;9.872;2022-09-01T04:10:11;2.87;;;2.50;;
13805;SDS011;6974;53.606;9.872;2022-09-01T04:12:38;2.97;;;2.60;;
13805;SDS011;6974;53.606;9.872;2022-09-01T04:15:05;2.37;;;2.17;;
13805;SDS011;6974;53.606;9.872;2022-09-01T04:17:33;4.07;;;2.30;;
13805;SDS011;6974;53.606;9.872;2022-09-01T04:20:18;3.50;;;2.57;;
13805;SDS011;6974;53.606;9.872;2022-09-01T04:22:47;3.87;;;2.30;;
13805;SDS011;6974;53.606;9.872;2022-09-01T04:25:15;2.30;;;2.10;;
13805;SDS011;6974;53.606;9.872;2022-09-01T04:27:47;4.50;;;2.50;;
13805;SDS011;6974;53.606;9.872;2022-09-01T04:30:14;3.27;;;2.20;;
13805;SDS011;6974;53.606;9.872;2022-09-01T04:32:42;3.33;;;2.50;;
13805;SDS011;6974;53.606;9.872;2022-09-01T04:35:12;4.47;;;3.53;;
13805;SDS011;6974;53.606;9.872;2022-09-01T04:37:41;3.80;;;3.40;;
13805;SDS011;6974;53.606;9.872;2022-09-01T04:40:10;3.73;;;3.00;;
13805;SDS011;6974;53.606;9.872;2022-09-01T04:42:38;2.67;;;2.47;;
13805;SDS011;6974;53.606;9.872;2022-09-01T04:45:06;3.43;;;2.60;;
13805;SDS011;6974;53.606;9.872;2022-09-01T04:47:35;3.00;;;2.70;;
13805;SDS011;6974;53.606;9.872;2022-09-01T04:50:06;6.10;;;2.53;;
13805;SDS011;6974;53.606;9.872;2022-09-01T04:52:38;4.20;;;2.60;;
13805;SDS011;6974;53.606;9.872;2022-09-01T04:55:07;4.23;;;2.70;;
13805;SDS011;6974;53.606;9.872;2022-09-01T04:57:41;7.10;;;2.90;;
13805;SDS011;6974;53.606;9.872;2022-09-01T05:00:11;4.10;;;2.70;;
13805;SDS011;6974;53.606;9.872;2022-09-01T05:02:46;3.60;;;2.80;;
13805;SDS011;6974;53.606;9.872;2022-09-01T05:05:15;3.47;;;2.80;;
13805;SDS011;6974;53.606;9.872;2022-09-01T05:07:41;4.23;;;2.70;;
13805;SDS011;6974;53.606;9.872;2022-09-01T05:10:11;7.07;;;3.13;;
13805;SDS011;6974;53.606;9.872;2022-09-01T05:12:38;3.93;;;2.60;;
13805;SDS011;6974;53.606;9.872;2022-09-01T05:15:09;5.30;;;3.23;;
13805;SDS011;6974;53.606;9.872;2022-09-01T05:17:36;5.23;;;2.80;;
13805;SDS011;6974;53.606;9.872;2022-09-01T05:20:05;3.53;;;2.60;;
13805;SDS011;6974;53.606;9.872;2022-09-01T05:22:34;4.43;;;2.50;;
13805;SDS011;6974;53.606;9.872;2022-09-01T05:25:02;3.77;;;2.80;;
13805;SDS011;6974;53.606;9.872;2022-09-01T05:27:37;4.60;;;2.67;;
13805;SDS011;6974;53.606;9.872;2022-09-01T05:30:06;3.20;;;2.50;;
13805;SDS011;6974;53.606;9.872;2022-09-01T05:32:34;4.93;;;2.97;;
13805;SDS011;6974;53.606;9.872;2022-09-01T05:35:04;4.27;;;3.80;;
13805;SDS011;6974;53.606;9.872;2022-09-01T05:37:33;5.90;;;4.67;;
13805;SDS011;6974;53.606;9.872;2022-09-01T05:40:02;4.93;;;4.43;;
13805;SDS011;6974;53.606;9.872;2022-09-01T05:42:31;4.63;;;3.77;;
13805;SDS011;6974;53.606;9.872;2022-09-01T05:44:59;5.93;;;3.27;;
13805;SDS011;6974;53.606;9.872;2022-09-01T05:47:29;3.47;;;3.17;;
13805;SDS011;6974;53.606;9.872;2022-09-01T05:50:01;5.33;;;3.40;;
13805;SDS011;6974;53.606;9.872;2022-09-01T05:52:30;3.27;;;2.87;;
13805;SDS011;6974;53.606;9.872;2022-09-01T05:55:00;4.10;;;2.70;;
13805;SDS011;6974;53.606;9.872;2022-09-01T05:57:27;3.63;;;3.20;;
13805;SDS011;6974;53.606;9.872;2022-09-01T06:00:00;4.40;;;2.80;;
13805;SDS011;6974;53.606;9.872;2022-09-01T06:02:34;3.50;;;2.97;;
13805;SDS011;6974;53.606;9.872;2022-09-01T06:05:04;5.37;;;2.57;;
13805;SDS011;6974;53.606;9.872;2022-09-01T06:07:31;5.33;;;3.00;;
13805;SDS011;6974;53.606;9.872;2022-09-01T06:10:00;3.70;;;2.77;;
13805;SDS011;6974;53.606;9.872;2022-09-01T06:12:27;2.97;;;2.57;;
13805;SDS011;6974;53.606;9.872;2022-09-01T06:14:55;4.33;;;2.87;;
13805;SDS011;6974;53.606;9.872;2022-09-01T06:17:25;5.10;;;2.70;;
13805;SDS011;6974;53.606;9.872;2022-09-01T06:19:54;3.37;;;2.60;;
13805;SDS011;6974;53.606;9.872;2022-09-01T06:22:24;2.80;;;2.27;;
13805;SDS011;6974;53.606;9.872;2022-09-01T06:24:53;2.90;;;2.30;;
13805;SDS011;6974;53.606;9.872;2022-09-01T06:27:21;5.53;;;2.33;;
13805;SDS011;6974;53.606;9.872;2022-09-01T06:29:48;4.10;;;2.37;;
13805;SDS011;6974;53.606;9.872;2022-09-01T06:32:17;2.83;;;2.47;;
13805;SDS011;6974;53.606;9.872;2022-09-01T06:34:46;3.93;;;2.77;;
13805;SDS011;6974;53.606;9.872;2022-09-01T06:37:15;2.83;;;2.30;;
13805;SDS011;6974;53.606;9.872;2022-09-01T06:39:46;2.43;;;2.20;;
13805;SDS011;6974;53.606;9.872;2022-09-01T06:42:14;4.53;;;2.10;;
13805;SDS011;6974;53.606;9.872;2022-09-01T06:44:41;2.83;;;2.50;;
13805;SDS011;6974;53.606;9.872;2022-09-01T06:47:10;3.03;;;2.10;;
13805;SDS011;6974;53.606;9.872;2022-09-01T06:49:37;6.03;;;2.50;;
13805;SDS011;6974;53.606;9.872;2022-09-01T06:52:06;2.77;;;2.27;;
13805;SDS011;6974;53.606;9.872;2022-09-01T06:54:35;3.13;;;2.13;;
13805;SDS011;6974;53.606;9.872;2022-09-01T06:57:05;5.13;;;2.23;;
13805;SDS011;6974;53.606;9.872;2022-09-01T06:59:32;3.77;;;2.30;;
13805;SDS011;6974;53.606;9.872;2022-09-01T07:02:00;4.93;;;2.20;;
13805;SDS011;6974;53.606;9.872;2022-09-01T07:04:27;2.87;;;1.97;;
13805;SDS011;6974;53.606;9.872;2022-09-01T07:06:55;2.37;;;2.17;;
13805;SDS011;6974;53.606;9.872;2022-09-01T07:09:24;3.87;;;2.00;;
13805;SDS011;6974;53.606;9.872;2022-09-01T07:11:51;4.60;;;2.00;;
13805;SDS011;6974;53.606;9.872;2022-09-01T07:14:19;2.00;;;1.80;;
13805;SDS011;6974;53.606;9.872;2022-09-01T07:16:47;3.33;;;1.77;;
13805;SDS011;6974;53.606;9.872;2022-09-01T07:19:15;4.77;;;2.20;;
13805;SDS011;6974;53.606;9.872;2022-09-01T07:21:42;2.97;;;1.80;;
13805;SDS011;6974;53.606;9.872;2022-09-01T07:24:10;3.40;;;1.70;;
13805;SDS011;6974;53.606;9.872;2022-09-01T07:26:41;3.47;;;1.57;;
13805;SDS011;6974;53.606;9.872;2022-09-01T07:29:11;2.50;;;1.87;;
13805;SDS011;6974;53.606;9.872;2022-09-01T07:31:40;1.93;;;1.50;;
13805;SDS011;6974;53.606;9.872;2022-09-01T07:34:08;3.63;;;1.37;;
13805;SDS011;6974;53.606;9.872;2022-09-01T07:36:38;3.07;;;1.60;;
13805;SDS011;6974;53.606;9.872;2022-09-01T07:39:06;2.70;;;1.63;;
13805;SDS011;6974;53.606;9.872;2022-09-01T07:41:34;3.77;;;1.70;;
13805;SDS011;6974;53.606;9.872;2022-09-01T07:44:08;2.07;;;1.50;;
13805;SDS011;6974;53.606;9.872;2022-09-01T07:46:38;5.57;;;1.90;;
13805;SDS011;6974;53.606;9.872;2022-09-01T07:49:05;2.93;;;1.67;;
13805;SDS011;6974;53.606;9.872;2022-09-01T07:51:33;4.27;;;1.50;;
13805;SDS011;6974;53.606;9.872;2022-09-01T07:54:00;3.20;;;1.50;;
13805;SDS011;6974;53.606;9.872;2022-09-01T07:56:27;5.77;;;1.60;;
13805;SDS011;6974;53.606;9.872;2022-09-01T07:58:55;2.90;;;1.60;;
13805;SDS011;6974;53.606;9.872;2022-09-01T08:01:26;1.90;;;1.20;;
13805;SDS011;6974;53.606;9.872;2022-09-01T08:03:54;1.23;;;1.20;;
13805;SDS011;6974;53.606;9.872;2022-09-01T08:06:23;1.40;;;1.30;;
13805;SDS011;6974;53.606;9.872;2022-09-01T08:08:52;2.87;;;1.20;;
13805;SDS011;6974;53.606;9.872;2022-09-01T08:11:21;1.60;;;1.37;;
13805;SDS011;6974;53.606;9.872;2022-09-01T08:13:50;1.23;;;1.10;;
13805;SDS011;6974;53.606;9.872;2022-09-01T08:16:18;1.40;;;1.30;;
13805;SDS011;6974;53.606;9.872;2022-09-01T08:18:48;1.63;;;1.30;;
13805;SDS011;6974;53.606;9.872;2022-09-01T08:21:16;2.43;;;1.60;;
13805;SDS011;6974;53.606;9.872;2022-09-01T08:23:46;1.70;;;1.07;;
13805;SDS011;6974;53.606;9.872;2022-09-01T08:26:14;2.47;;;1.20;;
13805;SDS011;6974;53.606;9.872;2022-09-01T08:28:43;1.10;;;1.00;;
13805;SDS011;6974;53.606;9.872;2022-09-01T08:31:10;1.40;;;1.30;;
13805;SDS011;6974;53.606;9.872;2022-09-01T08:33:40;1.57;;;1.23;;
13805;SDS011;6974;53.606;9.872;2022-09-01T08:36:11;1.63;;;1.13;;
13805;SDS011;6974;53.606;9.872;2022-09-01T08:38:39;1.53;;;1.00;;
13805;SDS011;6974;53.606;9.872;2022-09-01T08:41:12;1.40;;;1.30;;
13805;SDS011;6974;53.606;9.872;2022-09-01T08:43:47;2.20;;;1.27;;
13805;SDS011;6974;53.606;9.872;2022-09-01T08:46:23;1.40;;;1.30;;
13805;SDS011;6974;53.606;9.872;2022-09-01T08:48:54;1.83;;;1.20;;
13805;SDS011;6974;53.606;9.872;2022-09-01T08:51:29;2.23;;;1.47;;
13805;SDS011;6974;53.606;9.872;2022-09-01T08:54:03;1.87;;;1.10;;
13805;SDS011;6974;53.606;9.872;2022-09-01T08:56:34;2.37;;;1.20;;
13805;SDS011;6974;53.606;9.872;2022-09-01T08:59:02;1.17;;;1.07;;
13805;SDS011;6974;53.606;9.872;2022-09-01T09:01:35;2.27;;;1.13;;
13805;SDS011;6974;53.606;9.872;2022-09-01T09:04:12;1.63;;;1.20;;
13805;SDS011;6974;53.606;9.872;2022-09-01T09:06:54;1.80;;;1.20;;
13805;SDS011;6974;53.606;9.872;2022-09-01T09:09:33;1.87;;;0.90;;
13805;SDS011;6974;53.606;9.872;2022-09-01T09:12:11;1.00;;;0.90;;
13805;SDS011;6974;53.606;9.872;2022-09-01T09:14:55;4.50;;;1.10;;
13805;SDS011;6974;53.606;9.872;2022-09-01T09:17:33;2.70;;;1.03;;
13805;SDS011;6974;53.606;9.872;2022-09-01T09:20:02;1.20;;;1.10;;
13805;SDS011;6974;53.606;9.872;2022-09-01T09:22:31;1.53;;;1.10;;
13805;SDS011;6974;53.606;9.872;2022-09-01T09:25:01;1.20;;;1.10;;
13805;SDS011;6974;53.606;9.872;2022-09-01T09:27:34;1.03;;;0.93;;
13805;SDS011;6974;53.606;9.872;2022-09-01T09:30:04;1.83;;;1.20;;
13805;SDS011;6974;53.606;9.872;2022-09-01T09:35:21;2.10;;;1.20;;
13805;SDS011;6974;53.606;9.872;2022-09-01T09:37:52;0.90;;;0.90;;
13805;SDS011;6974;53.606;9.872;2022-09-01T09:40:20;1.63;;;1.00;;
13805;SDS011;6974;53.606;9.872;2022-09-01T09:42:59;2.10;;;1.10;;
13805;SDS011;6974;53.606;9.872;2022-09-01T09:45:32;1.83;;;1.20;;
13805;SDS011;6974;53.606;9.872;2022-09-01T09:48:06;1.93;;;1.30;;
13805;SDS011;6974;53.606;9.872;2022-09-01T09:50:36;3.07;;;1.30;;
13805;SDS011;6974;53.606;9.872;2022-09-01T09:53:25;2.80;;;1.30;;
13805;SDS011;6974;53.606;9.872;2022-09-01T09:55:55;1.70;;;1.13;;
13805;SDS011;6974;53.606;9.872;2022-09-01T09:58:25;1.13;;;1.03;;
13805;SDS011;6974;53.606;9.872;2022-09-01T10:01:00;0.87;;;0.87;;
13805;SDS011;6974;53.606;9.872;2022-09-01T10:03:34;3.07;;;1.13;;
13805;SDS011;6974;53.606;9.872;2022-09-01T10:06:08;3.73;;;1.23;;
13805;SDS011;6974;53.606;9.872;2022-09-01T10:08:40;2.53;;;1.03;;
13805;SDS011;6974;53.606;9.872;2022-09-01T10:11:26;1.80;;;1.30;;
13805;SDS011;6974;53.606;9.872;2022-09-01T10:13:56;1.80;;;1.00;;
13805;SDS011;6974;53.606;9.872;2022-09-01T10:16:24;1.23;;;0.93;;
13805;SDS011;6974;53.606;9.872;2022-09-01T10:18:54;1.20;;;1.10;;
13805;SDS011;6974;53.606;9.872;2022-09-01T10:21:25;0.83;;;0.83;;
13805;SDS011;6974;53.606;9.872;2022-09-01T10:23:57;1.60;;;1.20;;
13805;SDS011;6974;53.606;9.872;2022-09-01T10:26:25;1.10;;;1.00;;
13805;SDS011;6974;53.606;9.872;2022-09-01T10:28:59;0.90;;;0.90;;
13805;SDS011;6974;53.606;9.872;2022-09-01T10:31:31;1.37;;;0.90;;
13805;SDS011;6974;53.606;9.872;2022-09-01T10:34:00;1.43;;;1.33;;
13805;SDS011;6974;53.606;9.872;2022-09-01T10:36:28;1.30;;;1.10;;
13805;SDS011;6974;53.606;9.872;2022-09-01T10:38:58;1.20;;;1.10;;
13805;SDS011;6974;53.606;9.872;2022-09-01T10:44:18;0.83;;;0.80;;
13805;SDS011;6974;53.606;9.872;2022-09-01T10:46:50;0.80;;;0.80;;
13805;SDS011;6974;53.606;9.872;2022-09-01T10:55:22;1.17;;;1.10;;
13805;SDS011;6974;53.606;9.872;2022-09-01T10:58:04;1.40;;;1.30;;
13805;SDS011;6974;53.606;9.872;2022-09-01T11:01:06;1.40;;;0.90;;
13805;SDS011;6974;53.606;9.872;2022-09-01T11:09:16;1.33;;;1.20;;
13805;SDS011;6974;53.606;9.872;2022-09-01T11:11:50;1.83;;;1.30;;
13805;SDS011;6974;53.606;9.872;2022-09-01T11:14:32;2.73;;;1.23;;
13805;SDS011;6974;53.606;9.872;2022-09-01T11:17:12;1.00;;;0.90;;
13805;SDS011;6974;53.606;9.872;2022-09-01T11:19:42;1.67;;;1.10;;
13805;SDS011;6974;53.606;9.872;2022-09-01T11:28:06;3.30;;;1.17;;
13805;SDS011;6974;53.606;9.872;2022-09-01T11:30:55;1.00;;;1.00;;
13805;SDS011;6974;53.606;9.872;2022-09-01T11:33:31;1.40;;;1.30;;
13805;SDS011;6974;53.606;9.872;2022-09-01T11:36:10;3.30;;;1.40;;
13805;SDS011;6974;53.606;9.872;2022-09-01T11:38:42;2.37;;;1.30;;
13805;SDS011;6974;53.606;9.872;2022-09-01T11:41:20;2.83;;;1.30;;
13805;SDS011;6974;53.606;9.872;2022-09-01T11:43:59;1.47;;;1.20;;
13805;SDS011;6974;53.606;9.872;2022-09-01T11:46:30;1.33;;;1.00;;
13805;SDS011;6974;53.606;9.872;2022-09-01T11:48:59;2.00;;;1.20;;
13805;SDS011;6974;53.606;9.872;2022-09-01T11:51:39;0.97;;;0.97;;
13805;SDS011;6974;53.606;9.872;2022-09-01T11:54:10;1.13;;;1.03;;
13805;SDS011;6974;53.606;9.872;2022-09-01T11:56:38;2.73;;;1.20;;
13805;SDS011;6974;53.606;9.872;2022-09-01T11:59:07;2.30;;;1.20;;
13805;SDS011;6974;53.606;9.872;2022-09-01T12:01:35;2.13;;;1.10;;
13805;SDS011;6974;53.606;9.872;2022-09-01T12:06:53;1.40;;;1.20;;
13805;SDS011;6974;53.606;9.872;2022-09-01T12:09:30;3.70;;;1.10;;
13805;SDS011;6974;53.606;9.872;2022-09-01T12:12:02;1.17;;;1.07;;
13805;SDS011;6974;53.606;9.872;2022-09-01T12:14:32;1.30;;;1.20;;
13805;SDS011;6974;53.606;9.872;2022-09-01T12:17:01;0.90;;;0.90;;
13805;SDS011;6974;53.606;9.872;2022-09-01T12:19:31;1.30;;;1.13;;
13805;SDS011;6974;53.606;9.872;2022-09-01T12:22:00;1.23;;;1.10;;
13805;SDS011;6974;53.606;9.872;2022-09-01T12:24:30;1.43;;;1.00;;
13805;SDS011;6974;53.606;9.872;2022-09-01T12:27:01;1.13;;;1.10;;
13805;SDS011;6974;53.606;9.872;2022-09-01T12:29:29;1.40;;;1.30;;
13805;SDS011;6974;53.606;9.872;2022-09-01T12:31:58;2.83;;;1.37;;
13805;SDS011;6974;53.606;9.872;2022-09-01T12:34:30;1.40;;;1.30;;
13805;SDS011;6974;53.606;9.872;2022-09-01T12:37:05;1.30;;;1.20;;
13805;SDS011;6974;53.606;9.872;2022-09-01T12:39:37;1.27;;;1.17;;
13805;SDS011;6974;53.606;9.872;2022-09-01T12:42:07;1.00;;;1.00;;
13805;SDS011;6974;53.606;9.872;2022-09-01T12:44:49;0.93;;;0.90;;
13805;SDS011;6974;53.606;9.872;2022-09-01T12:53:00;1.23;;;1.10;;
13805;SDS011;6974;53.606;9.872;2022-09-01T12:55:29;1.30;;;1.20;;
13805;SDS011;6974;53.606;9.872;2022-09-01T12:57:58;1.30;;;1.10;;
13805;SDS011;6974;53.606;9.872;2022-09-01T13:00:27;3.07;;;1.30;;
13805;SDS011;6974;53.606;9.872;2022-09-01T13:03:05;1.93;;;1.30;;
13805;SDS011;6974;53.606;9.872;2022-09-01T13:05:37;1.83;;;1.40;;
13805;SDS011;6974;53.606;9.872;2022-09-01T13:08:06;1.30;;;1.20;;
13805;SDS011;6974;53.606;9.872;2022-09-01T13:10:35;1.90;;;1.17;;
13805;SDS011;6974;53.606;9.872;2022-09-01T13:13:04;2.60;;;1.20;;
13805;SDS011;6974;53.606;9.872;2022-09-01T13:15:31;1.27;;;1.17;;
13805;SDS011;6974;53.606;9.872;2022-09-01T13:18:00;1.67;;;1.20;;
13805;SDS011;6974;53.606;9.872;2022-09-01T13:20:29;1.37;;;1.00;;
13805;SDS011;6974;53.606;9.872;2022-09-01T13:22:56;1.17;;;1.07;;
13805;SDS011;6974;53.606;9.872;2022-09-01T13:25:23;1.77;;;1.10;;
13805;SDS011;6974;53.606;9.872;2022-09-01T13:27:50;2.27;;;1.00;;
13805;SDS011;6974;53.606;9.872;2022-09-01T13:30:20;1.37;;;1.10;;
13805;SDS011;6974;53.606;9.872;2022-09-01T13:32:48;2.17;;;1.10;;
13805;SDS011;6974;53.606;9.872;2022-09-01T13:35:17;1.30;;;1.10;;
13805;SDS011;6974;53.606;9.872;2022-09-01T13:37:46;1.00;;;1.00;;
13805;SDS011;6974;53.606;9.872;2022-09-01T13:40:14;1.47;;;1.00;;
13805;SDS011;6974;53.606;9.872;2022-09-01T13:42:42;2.57;;;1.30;;
13805;SDS011;6974;53.606;9.872;2022-09-01T13:45:10;1.17;;;1.00;;
13805;SDS011;6974;53.606;9.872;2022-09-01T13:47:38;2.70;;;2.00;;
13805;SDS011;6974;53.606;9.872;2022-09-01T13:50:06;2.10;;;1.20;;
13805;SDS011;6974;53.606;9.872;2022-09-01T13:52:34;1.37;;;1.27;;
13805;SDS011;6974;53.606;9.872;2022-09-01T13:55:04;3.27;;;1.20;;
13805;SDS011;6974;53.606;9.872;2022-09-01T13:57:32;1.20;;;1.10;;
13805;SDS011;6974;53.606;9.872;2022-09-01T13:59:59;1.83;;;1.30;;
13805;SDS011;6974;53.606;9.872;2022-09-01T14:02:26;1.00;;;1.00;;
13805;SDS011;6974;53.606;9.872;2022-09-01T14:04:53;1.80;;;1.10;;
13805;SDS011;6974;53.606;9.872;2022-09-01T14:07:20;1.20;;;1.07;;
13805;SDS011;6974;53.606;9.872;2022-09-01T14:09:47;1.40;;;1.30;;
13805;SDS011;6974;53.606;9.872;2022-09-01T14:12:15;4.13;;;3.73;;
13805;SDS011;6974;53.606;9.872;2022-09-01T14:14:42;1.40;;;1.30;;
13805;SDS011;6974;53.606;9.872;2022-09-01T14:17:09;1.20;;;1.10;;
13805;SDS011;6974;53.606;9.872;2022-09-01T14:19:37;1.40;;;1.30;;
13805;SDS011;6974;53.606;9.872;2022-09-01T14:22:04;1.40;;;1.30;;
13805;SDS011;6974;53.606;9.872;2022-09-01T14:24:30;1.67;;;1.13;;
13805;SDS011;6974;53.606;9.872;2022-09-01T14:27:00;1.30;;;1.10;;
13805;SDS011;6974;53.606;9.872;2022-09-01T14:29:28;1.40;;;1.30;;
13805;SDS011;6974;53.606;9.872;2022-09-01T14:31:56;3.47;;;1.30;;
13805;SDS011;6974;53.606;9.872;2022-09-01T14:34:28;1.87;;;1.00;;
13805;SDS011;6974;53.606;9.872;2022-09-01T14:36:55;1.13;;;1.03;;
13805;SDS011;6974;53.606;9.872;2022-09-01T14:39:23;1.77;;;1.20;;
13805;SDS011;6974;53.606;9.872;2022-09-01T14:41:50;1.53;;;1.30;;
13805;SDS011;6974;53.606;9.872;2022-09-01T14:44:18;2.83;;;1.30;;
13805;SDS011;6974;53.606;9.872;2022-09-01T14:46:47;1.20;;;1.10;;
13805;SDS011;6974;53.606;9.872;2022-09-01T14:49:14;1.57;;;1.20;;
13805;SDS011;6974;53.606;9.872;2022-09-01T14:51:44;2.90;;;1.30;;
13805;SDS011;6974;53.606;9.872;2022-09-01T14:54:11;1.47;;;1.10;;
13805;SDS011;6974;53.606;9.872;2022-09-01T14:56:38;1.73;;;1.33;;
13805;SDS011;6974;53.606;9.872;2022-09-01T14:59:05;1.30;;;1.10;;
13805;SDS011;6974;53.606;9.872;2022-09-01T15:01:35;1.57;;;1.30;;
13805;SDS011;6974;53.606;9.872;2022-09-01T15:04:03;4.10;;;1.40;;
13805;SDS011;6974;53.606;9.872;2022-09-01T15:06:30;4.30;;;1.37;;
13805;SDS011;6974;53.606;9.872;2022-09-01T15:08:57;2.87;;;1.30;;
13805;SDS011;6974;53.606;9.872;2022-09-01T15:11:26;2.77;;;1.53;;
13805;SDS011;6974;53.606;9.872;2022-09-01T15:13:53;1.30;;;1.20;;
13805;SDS011;6974;53.606;9.872;2022-09-01T15:16:21;1.17;;;1.00;;
13805;SDS011;6974;53.606;9.872;2022-09-01T15:18:50;2.33;;;1.20;;
13805;SDS011;6974;53.606;9.872;2022-09-01T15:21:21;1.23;;;1.20;;
13805;SDS011;6974;53.606;9.872;2022-09-01T15:23:49;1.30;;;1.20;;
13805;SDS011;6974;53.606;9.872;2022-09-01T15:26:18;1.07;;;1.00;;
13805;SDS011;6974;53.606;9.872;2022-09-01T15:28:48;2.57;;;1.70;;
13805;SDS011;6974;53.606;9.872;2022-09-01T15:31:18;2.20;;;1.53;;
13805;SDS011;6974;53.606;9.872;2022-09-01T15:33:46;2.10;;;1.30;;
13805;SDS011;6974;53.606;9.872;2022-09-01T15:36:14;2.03;;;1.20;;
13805;SDS011;6974;53.606;9.872;2022-09-01T15:38:44;1.57;;;1.40;;
13805;SDS011;6974;53.606;9.872;2022-09-01T15:41:14;1.53;;;1.20;;
13805;SDS011;6974;53.606;9.872;2022-09-01T15:43:42;2.97;;;1.33;;
13805;SDS011;6974;53.606;9.872;2022-09-01T15:46:08;1.53;;;1.07;;
13805;SDS011;6974;53.606;9.872;2022-09-01T15:48:38;2.43;;;1.17;;